sensor_id;sensor_type;location;lat;lon;timestamp;P1;durP1;ratioP1;P2;durP2;ratioP2
19651;SDS011;9974;52.146;14.668;2023-06-22T00:01:53;10.23;;;7.70;;
19651;SDS011;9974;52.146;14.668;2023-06-22T00:04:19;9.30;;;6.93;;
19651;SDS011;9974;52.146;14.668;2023-06-22T00:06:45;13.50;;;8.13;;
19651;SDS011;9974;52.146;14.668;2023-06-22T00:09:11;9.75;;;6.78;;
19651;SDS011;9974;52.146;14.668;2023-06-22T00:11:37;10.48;;;7.70;;
19651;SDS011;9974;52.146;14.668;2023-06-22T00:14:03;8.75;;;6.97;;
19651;SDS011;9974;52.146;14.668;2023-06-22T00:16:31;9.57;;;7.05;;
19651;SDS011;9974;52.146;14.668;2023-06-22T00:18:57;10.27;;;7.60;;
19651;SDS011;9974;52.146;14.668;2023-06-22T00:21:28;11.43;;;8.38;;
19651;SDS011;9974;52.146;14.668;2023-06-22T00:23:55;12.05;;;8.77;;
19651;SDS011;9974;52.146;14.668;2023-06-22T00:26:22;11.70;;;9.25;;
19651;SDS011;9974;52.146;14.668;2023-06-22T00:28:48;10.50;;;7.90;;
19651;SDS011;9974;52.146;14.668;2023-06-22T00:31:14;10.00;;;7.80;;
19651;SDS011;9974;52.146;14.668;2023-06-22T00:33:40;14.23;;;8.88;;
19651;SDS011;9974;52.146;14.668;2023-06-22T00:36:06;11.90;;;8.90;;
19651;SDS011;9974;52.146;14.668;2023-06-22T00:38:38;12.30;;;8.18;;
19651;SDS011;9974;52.146;14.668;2023-06-22T00:41:05;12.90;;;8.85;;
19651;SDS011;9974;52.146;14.668;2023-06-22T00:43:31;11.30;;;8.57;;
19651;SDS011;9974;52.146;14.668;2023-06-22T00:45:57;11.20;;;8.70;;
19651;SDS011;9974;52.146;14.668;2023-06-22T00:48:23;9.77;;;7.53;;
19651;SDS011;9974;52.146;14.668;2023-06-22T00:50:49;12.95;;;8.05;;
19651;SDS011;9974;52.146;14.668;2023-06-22T00:53:16;11.43;;;8.55;;
19651;SDS011;9974;52.146;14.668;2023-06-22T00:55:43;12.65;;;9.48;;
19651;SDS011;9974;52.146;14.668;2023-06-22T00:58:11;17.02;;;8.90;;
19651;SDS011;9974;52.146;14.668;2023-06-22T01:00:38;10.95;;;8.80;;
19651;SDS011;9974;52.146;14.668;2023-06-22T01:03:06;12.77;;;9.10;;
19651;SDS011;9974;52.146;14.668;2023-06-22T01:05:34;10.27;;;7.38;;
19651;SDS011;9974;52.146;14.668;2023-06-22T01:10:52;11.18;;;8.63;;
19651;SDS011;9974;52.146;14.668;2023-06-22T01:13:32;11.45;;;7.65;;
19651;SDS011;9974;52.146;14.668;2023-06-22T01:16:23;14.93;;;8.80;;
19651;SDS011;9974;52.146;14.668;2023-06-22T01:18:55;9.20;;;7.65;;
19651;SDS011;9974;52.146;14.668;2023-06-22T01:21:23;11.20;;;8.48;;
19651;SDS011;9974;52.146;14.668;2023-06-22T01:24:02;11.50;;;8.50;;
19651;SDS011;9974;52.146;14.668;2023-06-22T01:26:43;10.55;;;7.93;;
19651;SDS011;9974;52.146;14.668;2023-06-22T01:29:35;12.25;;;8.25;;
19651;SDS011;9974;52.146;14.668;2023-06-22T01:32:03;12.10;;;8.93;;
19651;SDS011;9974;52.146;14.668;2023-06-22T01:34:30;11.88;;;9.00;;
19651;SDS011;9974;52.146;14.668;2023-06-22T01:36:57;11.38;;;9.00;;
19651;SDS011;9974;52.146;14.668;2023-06-22T01:39:23;13.25;;;8.10;;
19651;SDS011;9974;52.146;14.668;2023-06-22T01:41:50;13.25;;;7.80;;
19651;SDS011;9974;52.146;14.668;2023-06-22T01:44:16;11.95;;;8.90;;
19651;SDS011;9974;52.146;14.668;2023-06-22T01:46:43;9.75;;;7.35;;
19651;SDS011;9974;52.146;14.668;2023-06-22T01:49:09;11.63;;;8.77;;
19651;SDS011;9974;52.146;14.668;2023-06-22T01:51:35;10.18;;;8.10;;
19651;SDS011;9974;52.146;14.668;2023-06-22T01:54:01;10.90;;;8.30;;
19651;SDS011;9974;52.146;14.668;2023-06-22T01:56:28;11.85;;;9.27;;
19651;SDS011;9974;52.146;14.668;2023-06-22T01:58:57;13.30;;;9.85;;
19651;SDS011;9974;52.146;14.668;2023-06-22T02:01:38;14.20;;;8.93;;
19651;SDS011;9974;52.146;14.668;2023-06-22T02:04:20;12.07;;;9.18;;
19651;SDS011;9974;52.146;14.668;2023-06-22T02:06:51;11.50;;;8.27;;
19651;SDS011;9974;52.146;14.668;2023-06-22T02:09:22;14.50;;;10.13;;
19651;SDS011;9974;52.146;14.668;2023-06-22T02:11:51;12.80;;;9.38;;
19651;SDS011;9974;52.146;14.668;2023-06-22T02:14:20;15.27;;;9.73;;
19651;SDS011;9974;52.146;14.668;2023-06-22T02:16:47;14.38;;;10.85;;
19651;SDS011;9974;52.146;14.668;2023-06-22T02:19:13;14.60;;;10.27;;
19651;SDS011;9974;52.146;14.668;2023-06-22T02:21:43;15.32;;;10.80;;
19651;SDS011;9974;52.146;14.668;2023-06-22T02:24:10;13.43;;;9.55;;
19651;SDS011;9974;52.146;14.668;2023-06-22T02:26:36;19.73;;;13.98;;
19651;SDS011;9974;52.146;14.668;2023-06-22T02:29:03;15.00;;;12.00;;
19651;SDS011;9974;52.146;14.668;2023-06-22T02:31:29;14.93;;;11.77;;
19651;SDS011;9974;52.146;14.668;2023-06-22T02:33:58;16.98;;;12.40;;
19651;SDS011;9974;52.146;14.668;2023-06-22T02:36:24;19.35;;;13.90;;
19651;SDS011;9974;52.146;14.668;2023-06-22T02:38:52;15.80;;;11.85;;
19651;SDS011;9974;52.146;14.668;2023-06-22T02:41:19;15.40;;;12.02;;
19651;SDS011;9974;52.146;14.668;2023-06-22T02:43:45;17.90;;;13.63;;
19651;SDS011;9974;52.146;14.668;2023-06-22T02:46:11;18.38;;;13.88;;
19651;SDS011;9974;52.146;14.668;2023-06-22T02:48:38;16.63;;;13.00;;
19651;SDS011;9974;52.146;14.668;2023-06-22T02:51:05;17.48;;;13.15;;
19651;SDS011;9974;52.146;14.668;2023-06-22T02:53:31;16.13;;;12.18;;
19651;SDS011;9974;52.146;14.668;2023-06-22T02:55:57;18.63;;;12.10;;
19651;SDS011;9974;52.146;14.668;2023-06-22T02:58:23;18.80;;;12.77;;
19651;SDS011;9974;52.146;14.668;2023-06-22T03:00:49;15.15;;;12.10;;
19651;SDS011;9974;52.146;14.668;2023-06-22T03:03:18;18.10;;;13.45;;
19651;SDS011;9974;52.146;14.668;2023-06-22T03:05:44;18.48;;;13.40;;
19651;SDS011;9974;52.146;14.668;2023-06-22T03:08:10;16.35;;;13.43;;
19651;SDS011;9974;52.146;14.668;2023-06-22T03:10:36;17.65;;;13.85;;
19651;SDS011;9974;52.146;14.668;2023-06-22T03:13:02;18.23;;;14.02;;
19651;SDS011;9974;52.146;14.668;2023-06-22T03:15:28;19.98;;;14.50;;
19651;SDS011;9974;52.146;14.668;2023-06-22T03:17:56;16.40;;;12.40;;
19651;SDS011;9974;52.146;14.668;2023-06-22T03:20:22;18.40;;;13.95;;
19651;SDS011;9974;52.146;14.668;2023-06-22T03:22:48;18.02;;;13.95;;
19651;SDS011;9974;52.146;14.668;2023-06-22T03:25:13;17.77;;;13.93;;
19651;SDS011;9974;52.146;14.668;2023-06-22T03:27:40;19.42;;;14.27;;
19651;SDS011;9974;52.146;14.668;2023-06-22T03:30:07;17.73;;;14.05;;
19651;SDS011;9974;52.146;14.668;2023-06-22T03:32:35;18.80;;;14.13;;
19651;SDS011;9974;52.146;14.668;2023-06-22T03:35:01;18.45;;;13.48;;
19651;SDS011;9974;52.146;14.668;2023-06-22T03:37:27;20.05;;;13.68;;
19651;SDS011;9974;52.146;14.668;2023-06-22T03:39:54;19.27;;;13.63;;
19651;SDS011;9974;52.146;14.668;2023-06-22T03:42:20;18.70;;;14.00;;
19651;SDS011;9974;52.146;14.668;2023-06-22T03:44:46;17.90;;;13.57;;
19651;SDS011;9974;52.146;14.668;2023-06-22T03:47:12;19.73;;;14.30;;
19651;SDS011;9974;52.146;14.668;2023-06-22T03:49:38;16.30;;;13.32;;
19651;SDS011;9974;52.146;14.668;2023-06-22T03:52:04;17.85;;;14.07;;
19651;SDS011;9974;52.146;14.668;2023-06-22T03:54:30;20.70;;;14.77;;
19651;SDS011;9974;52.146;14.668;2023-06-22T03:56:57;18.65;;;14.35;;
19651;SDS011;9974;52.146;14.668;2023-06-22T03:59:23;17.50;;;13.88;;
19651;SDS011;9974;52.146;14.668;2023-06-22T04:01:49;17.83;;;14.02;;
19651;SDS011;9974;52.146;14.668;2023-06-22T04:04:16;18.52;;;13.27;;
19651;SDS011;9974;52.146;14.668;2023-06-22T04:06:43;19.40;;;15.30;;
19651;SDS011;9974;52.146;14.668;2023-06-22T04:09:09;17.08;;;13.77;;
19651;SDS011;9974;52.146;14.668;2023-06-22T04:11:35;17.83;;;13.48;;
19651;SDS011;9974;52.146;14.668;2023-06-22T04:14:01;18.60;;;14.57;;
19651;SDS011;9974;52.146;14.668;2023-06-22T04:16:27;18.23;;;13.55;;
19651;SDS011;9974;52.146;14.668;2023-06-22T04:18:53;16.45;;;13.93;;
19651;SDS011;9974;52.146;14.668;2023-06-22T04:21:19;16.45;;;13.27;;
19651;SDS011;9974;52.146;14.668;2023-06-22T04:23:45;19.42;;;13.68;;
19651;SDS011;9974;52.146;14.668;2023-06-22T04:26:12;18.35;;;14.05;;
19651;SDS011;9974;52.146;14.668;2023-06-22T04:28:39;16.23;;;12.50;;
19651;SDS011;9974;52.146;14.668;2023-06-22T04:31:05;16.35;;;12.68;;
19651;SDS011;9974;52.146;14.668;2023-06-22T04:33:31;15.13;;;12.38;;
19651;SDS011;9974;52.146;14.668;2023-06-22T04:35:57;15.95;;;12.18;;
19651;SDS011;9974;52.146;14.668;2023-06-22T04:38:25;14.88;;;12.20;;
19651;SDS011;9974;52.146;14.668;2023-06-22T04:40:51;14.35;;;11.15;;
19651;SDS011;9974;52.146;14.668;2023-06-22T04:43:18;15.63;;;12.30;;
19651;SDS011;9974;52.146;14.668;2023-06-22T04:45:44;14.10;;;10.82;;
19651;SDS011;9974;52.146;14.668;2023-06-22T04:48:10;14.23;;;10.77;;
19651;SDS011;9974;52.146;14.668;2023-06-22T04:50:41;14.23;;;10.57;;
19651;SDS011;9974;52.146;14.668;2023-06-22T04:53:07;16.75;;;11.70;;
19651;SDS011;9974;52.146;14.668;2023-06-22T04:55:37;15.00;;;11.10;;
19651;SDS011;9974;52.146;14.668;2023-06-22T04:58:06;15.52;;;11.75;;
19651;SDS011;9974;52.146;14.668;2023-06-22T05:00:32;17.58;;;12.45;;
19651;SDS011;9974;52.146;14.668;2023-06-22T05:03:01;15.18;;;11.48;;
19651;SDS011;9974;52.146;14.668;2023-06-22T05:05:28;12.77;;;10.57;;
19651;SDS011;9974;52.146;14.668;2023-06-22T05:07:55;14.48;;;10.63;;
19651;SDS011;9974;52.146;14.668;2023-06-22T05:10:25;11.13;;;9.52;;
19651;SDS011;9974;52.146;14.668;2023-06-22T05:12:51;13.23;;;10.45;;
19651;SDS011;9974;52.146;14.668;2023-06-22T05:15:17;12.55;;;9.63;;
19651;SDS011;9974;52.146;14.668;2023-06-22T05:17:47;13.85;;;9.52;;
19651;SDS011;9974;52.146;14.668;2023-06-22T05:20:12;12.32;;;10.10;;
19651;SDS011;9974;52.146;14.668;2023-06-22T05:22:38;12.40;;;10.00;;
19651;SDS011;9974;52.146;14.668;2023-06-22T05:25:08;14.30;;;10.85;;
19651;SDS011;9974;52.146;14.668;2023-06-22T05:27:35;12.38;;;9.05;;
19651;SDS011;9974;52.146;14.668;2023-06-22T05:30:04;12.43;;;9.52;;
19651;SDS011;9974;52.146;14.668;2023-06-22T05:32:32;12.25;;;9.75;;
19651;SDS011;9974;52.146;14.668;2023-06-22T05:34:58;12.88;;;9.25;;
19651;SDS011;9974;52.146;14.668;2023-06-22T05:37:24;15.10;;;9.98;;
19651;SDS011;9974;52.146;14.668;2023-06-22T05:39:51;11.50;;;9.25;;
19651;SDS011;9974;52.146;14.668;2023-06-22T05:42:16;11.32;;;8.38;;
19651;SDS011;9974;52.146;14.668;2023-06-22T05:44:42;11.93;;;9.40;;
19651;SDS011;9974;52.146;14.668;2023-06-22T05:47:08;11.40;;;8.80;;
19651;SDS011;9974;52.146;14.668;2023-06-22T05:49:34;11.57;;;8.05;;
19651;SDS011;9974;52.146;14.668;2023-06-22T05:52:00;13.27;;;7.50;;
19651;SDS011;9974;52.146;14.668;2023-06-22T05:54:29;11.07;;;8.52;;
19651;SDS011;9974;52.146;14.668;2023-06-22T05:56:55;8.57;;;6.68;;
19651;SDS011;9974;52.146;14.668;2023-06-22T05:59:21;10.63;;;6.85;;
19651;SDS011;9974;52.146;14.668;2023-06-22T06:01:47;15.95;;;7.47;;
19651;SDS011;9974;52.146;14.668;2023-06-22T06:04:16;8.95;;;7.55;;
19651;SDS011;9974;52.146;14.668;2023-06-22T06:06:45;10.65;;;8.45;;
19651;SDS011;9974;52.146;14.668;2023-06-22T06:09:12;9.77;;;7.53;;
19651;SDS011;9974;52.146;14.668;2023-06-22T06:11:39;9.10;;;7.15;;
19651;SDS011;9974;52.146;14.668;2023-06-22T06:14:05;14.45;;;6.97;;
19651;SDS011;9974;52.146;14.668;2023-06-22T06:16:31;9.93;;;7.20;;
19651;SDS011;9974;52.146;14.668;2023-06-22T06:18:57;9.50;;;7.50;;
19651;SDS011;9974;52.146;14.668;2023-06-22T06:21:23;7.95;;;6.43;;
19651;SDS011;9974;52.146;14.668;2023-06-22T06:23:49;10.05;;;7.85;;
19651;SDS011;9974;52.146;14.668;2023-06-22T06:26:15;8.00;;;5.53;;
19651;SDS011;9974;52.146;14.668;2023-06-22T06:28:42;7.13;;;5.82;;
19651;SDS011;9974;52.146;14.668;2023-06-22T06:31:08;8.77;;;6.25;;
19651;SDS011;9974;52.146;14.668;2023-06-22T06:33:35;10.00;;;5.65;;
19651;SDS011;9974;52.146;14.668;2023-06-22T06:36:01;9.05;;;6.15;;
19651;SDS011;9974;52.146;14.668;2023-06-22T06:38:28;10.85;;;6.90;;
19651;SDS011;9974;52.146;14.668;2023-06-22T06:40:58;8.80;;;5.97;;
19651;SDS011;9974;52.146;14.668;2023-06-22T06:43:24;8.80;;;6.60;;
19651;SDS011;9974;52.146;14.668;2023-06-22T06:45:50;8.95;;;5.90;;
19651;SDS011;9974;52.146;14.668;2023-06-22T06:48:16;7.03;;;5.45;;
19651;SDS011;9974;52.146;14.668;2023-06-22T06:50:42;7.63;;;5.20;;
19651;SDS011;9974;52.146;14.668;2023-06-22T06:53:09;7.00;;;5.03;;
19651;SDS011;9974;52.146;14.668;2023-06-22T06:55:35;6.53;;;4.68;;
19651;SDS011;9974;52.146;14.668;2023-06-22T06:58:01;5.72;;;4.03;;
19651;SDS011;9974;52.146;14.668;2023-06-22T07:00:32;5.15;;;3.70;;
19651;SDS011;9974;52.146;14.668;2023-06-22T07:02:58;6.38;;;3.90;;
19651;SDS011;9974;52.146;14.668;2023-06-22T07:05:24;6.00;;;4.22;;
19651;SDS011;9974;52.146;14.668;2023-06-22T07:07:49;8.63;;;4.05;;
19651;SDS011;9974;52.146;14.668;2023-06-22T07:10:15;5.38;;;3.88;;
19651;SDS011;9974;52.146;14.668;2023-06-22T07:12:41;6.60;;;3.83;;
19651;SDS011;9974;52.146;14.668;2023-06-22T07:15:08;5.15;;;3.97;;
19651;SDS011;9974;52.146;14.668;2023-06-22T07:17:35;5.70;;;3.53;;
19651;SDS011;9974;52.146;14.668;2023-06-22T07:20:02;6.10;;;3.72;;
19651;SDS011;9974;52.146;14.668;2023-06-22T07:22:34;4.85;;;3.65;;
19651;SDS011;9974;52.146;14.668;2023-06-22T07:25:01;8.48;;;4.05;;
19651;SDS011;9974;52.146;14.668;2023-06-22T07:27:30;6.80;;;3.80;;
19651;SDS011;9974;52.146;14.668;2023-06-22T07:30:01;7.30;;;3.28;;
19651;SDS011;9974;52.146;14.668;2023-06-22T07:32:27;5.32;;;3.67;;
19651;SDS011;9974;52.146;14.668;2023-06-22T07:34:53;6.75;;;4.30;;
19651;SDS011;9974;52.146;14.668;2023-06-22T07:37:19;5.45;;;3.40;;
19651;SDS011;9974;52.146;14.668;2023-06-22T07:39:46;5.07;;;3.22;;
19651;SDS011;9974;52.146;14.668;2023-06-22T07:42:11;5.18;;;3.33;;
19651;SDS011;9974;52.146;14.668;2023-06-22T07:44:37;6.47;;;2.83;;
19651;SDS011;9974;52.146;14.668;2023-06-22T07:47:03;4.82;;;2.78;;
19651;SDS011;9974;52.146;14.668;2023-06-22T07:49:29;4.70;;;2.92;;
19651;SDS011;9974;52.146;14.668;2023-06-22T07:51:55;5.28;;;3.17;;
19651;SDS011;9974;52.146;14.668;2023-06-22T07:54:21;3.83;;;2.75;;
19651;SDS011;9974;52.146;14.668;2023-06-22T07:56:48;4.93;;;3.75;;
19651;SDS011;9974;52.146;14.668;2023-06-22T07:59:14;5.90;;;3.53;;
19651;SDS011;9974;52.146;14.668;2023-06-22T08:01:40;4.95;;;2.78;;
19651;SDS011;9974;52.146;14.668;2023-06-22T08:04:06;8.68;;;3.03;;
19651;SDS011;9974;52.146;14.668;2023-06-22T08:06:32;4.53;;;3.08;;
19651;SDS011;9974;52.146;14.668;2023-06-22T08:08:58;5.60;;;3.50;;
19651;SDS011;9974;52.146;14.668;2023-06-22T08:11:24;4.55;;;3.00;;
19651;SDS011;9974;52.146;14.668;2023-06-22T08:13:51;5.50;;;3.38;;
19651;SDS011;9974;52.146;14.668;2023-06-22T08:16:17;6.45;;;3.38;;
19651;SDS011;9974;52.146;14.668;2023-06-22T08:18:43;5.90;;;3.22;;
19651;SDS011;9974;52.146;14.668;2023-06-22T08:21:09;5.15;;;3.55;;
19651;SDS011;9974;52.146;14.668;2023-06-22T08:23:36;4.55;;;2.97;;
19651;SDS011;9974;52.146;14.668;2023-06-22T08:26:02;5.43;;;3.70;;
19651;SDS011;9974;52.146;14.668;2023-06-22T08:28:28;5.50;;;3.58;;
19651;SDS011;9974;52.146;14.668;2023-06-22T08:30:54;4.10;;;2.67;;
19651;SDS011;9974;52.146;14.668;2023-06-22T08:33:20;7.55;;;3.13;;
19651;SDS011;9974;52.146;14.668;2023-06-22T08:35:48;5.35;;;3.13;;
19651;SDS011;9974;52.146;14.668;2023-06-22T08:38:14;4.32;;;2.40;;
19651;SDS011;9974;52.146;14.668;2023-06-22T08:40:40;4.00;;;2.50;;
19651;SDS011;9974;52.146;14.668;2023-06-22T08:43:06;6.40;;;3.75;;
19651;SDS011;9974;52.146;14.668;2023-06-22T08:45:32;5.13;;;3.35;;
19651;SDS011;9974;52.146;14.668;2023-06-22T08:47:58;4.00;;;2.80;;
19651;SDS011;9974;52.146;14.668;2023-06-22T08:50:24;5.93;;;2.90;;
19651;SDS011;9974;52.146;14.668;2023-06-22T08:52:50;4.90;;;2.90;;
19651;SDS011;9974;52.146;14.668;2023-06-22T08:55:16;4.22;;;2.78;;
19651;SDS011;9974;52.146;14.668;2023-06-22T08:57:42;4.78;;;2.75;;
19651;SDS011;9974;52.146;14.668;2023-06-22T09:00:09;4.88;;;2.47;;
19651;SDS011;9974;52.146;14.668;2023-06-22T09:02:45;5.75;;;2.85;;
19651;SDS011;9974;52.146;14.668;2023-06-22T09:05:12;6.82;;;2.90;;
19651;SDS011;9974;52.146;14.668;2023-06-22T09:07:38;4.13;;;2.60;;
19651;SDS011;9974;52.146;14.668;2023-06-22T09:10:05;12.63;;;4.65;;
19651;SDS011;9974;52.146;14.668;2023-06-22T09:12:32;4.10;;;2.35;;
19651;SDS011;9974;52.146;14.668;2023-06-22T09:14:58;3.80;;;2.33;;
19651;SDS011;9974;52.146;14.668;2023-06-22T09:17:25;4.63;;;2.50;;
19651;SDS011;9974;52.146;14.668;2023-06-22T09:19:51;3.83;;;2.47;;
19651;SDS011;9974;52.146;14.668;2023-06-22T09:22:17;5.70;;;2.33;;
19651;SDS011;9974;52.146;14.668;2023-06-22T09:24:44;3.40;;;2.47;;
19651;SDS011;9974;52.146;14.668;2023-06-22T09:27:10;2.22;;;1.63;;
19651;SDS011;9974;52.146;14.668;2023-06-22T09:29:36;4.80;;;2.30;;
19651;SDS011;9974;52.146;14.668;2023-06-22T09:32:02;8.55;;;3.08;;
19651;SDS011;9974;52.146;14.668;2023-06-22T09:34:28;4.38;;;2.28;;
19651;SDS011;9974;52.146;14.668;2023-06-22T09:36:56;6.47;;;2.67;;
19651;SDS011;9974;52.146;14.668;2023-06-22T09:39:22;3.30;;;2.17;;
19651;SDS011;9974;52.146;14.668;2023-06-22T09:41:48;4.25;;;2.15;;
19651;SDS011;9974;52.146;14.668;2023-06-22T09:44:14;6.28;;;2.70;;
19651;SDS011;9974;52.146;14.668;2023-06-22T09:46:40;3.97;;;2.20;;
19651;SDS011;9974;52.146;14.668;2023-06-22T09:49:06;4.05;;;2.15;;
19651;SDS011;9974;52.146;14.668;2023-06-22T09:51:32;4.28;;;2.33;;
19651;SDS011;9974;52.146;14.668;2023-06-22T09:53:57;4.53;;;2.40;;
19651;SDS011;9974;52.146;14.668;2023-06-22T09:56:23;6.63;;;2.75;;
19651;SDS011;9974;52.146;14.668;2023-06-22T09:58:49;6.43;;;2.03;;
19651;SDS011;9974;52.146;14.668;2023-06-22T10:01:17;2.92;;;1.88;;
19651;SDS011;9974;52.146;14.668;2023-06-22T10:03:43;2.63;;;1.83;;
19651;SDS011;9974;52.146;14.668;2023-06-22T10:06:09;3.33;;;1.92;;
19651;SDS011;9974;52.146;14.668;2023-06-22T10:08:35;3.33;;;1.85;;
19651;SDS011;9974;52.146;14.668;2023-06-22T10:11:01;5.47;;;2.60;;
19651;SDS011;9974;52.146;14.668;2023-06-22T10:13:27;2.75;;;2.10;;
19651;SDS011;9974;52.146;14.668;2023-06-22T10:15:53;2.47;;;1.85;;
19651;SDS011;9974;52.146;14.668;2023-06-22T10:18:20;3.33;;;2.28;;
19651;SDS011;9974;52.146;14.668;2023-06-22T10:20:47;3.22;;;1.83;;
19651;SDS011;9974;52.146;14.668;2023-06-22T10:23:18;2.55;;;1.70;;
19651;SDS011;9974;52.146;14.668;2023-06-22T10:25:47;4.47;;;2.20;;
19651;SDS011;9974;52.146;14.668;2023-06-22T10:28:13;2.08;;;1.42;;
19651;SDS011;9974;52.146;14.668;2023-06-22T10:30:39;2.55;;;1.67;;
19651;SDS011;9974;52.146;14.668;2023-06-22T10:33:09;3.35;;;1.80;;
19651;SDS011;9974;52.146;14.668;2023-06-22T10:35:36;2.60;;;1.38;;
19651;SDS011;9974;52.146;14.668;2023-06-22T10:38:05;5.97;;;2.40;;
19651;SDS011;9974;52.146;14.668;2023-06-22T10:40:31;4.47;;;2.28;;
19651;SDS011;9974;52.146;14.668;2023-06-22T10:42:57;2.92;;;2.10;;
19651;SDS011;9974;52.146;14.668;2023-06-22T10:45:24;3.15;;;1.70;;
19651;SDS011;9974;52.146;14.668;2023-06-22T10:47:50;3.80;;;1.80;;
19651;SDS011;9974;52.146;14.668;2023-06-22T10:50:16;4.05;;;2.42;;
19651;SDS011;9974;52.146;14.668;2023-06-22T10:52:42;4.40;;;1.98;;
19651;SDS011;9974;52.146;14.668;2023-06-22T10:55:09;4.10;;;2.20;;
19651;SDS011;9974;52.146;14.668;2023-06-22T10:57:35;4.75;;;2.83;;
19651;SDS011;9974;52.146;14.668;2023-06-22T11:00:02;3.13;;;2.00;;
19651;SDS011;9974;52.146;14.668;2023-06-22T11:02:30;3.95;;;2.45;;
19651;SDS011;9974;52.146;14.668;2023-06-22T11:04:56;3.17;;;2.00;;
19651;SDS011;9974;52.146;14.668;2023-06-22T11:07:25;4.03;;;2.42;;
19651;SDS011;9974;52.146;14.668;2023-06-22T11:09:52;4.15;;;3.05;;
19651;SDS011;9974;52.146;14.668;2023-06-22T11:12:18;4.72;;;2.13;;
19651;SDS011;9974;52.146;14.668;2023-06-22T11:14:44;4.47;;;1.73;;
19651;SDS011;9974;52.146;14.668;2023-06-22T11:17:10;3.28;;;1.67;;
19651;SDS011;9974;52.146;14.668;2023-06-22T11:19:36;3.13;;;2.22;;
19651;SDS011;9974;52.146;14.668;2023-06-22T11:22:01;2.53;;;2.00;;
19651;SDS011;9974;52.146;14.668;2023-06-22T11:24:28;3.90;;;2.38;;
19651;SDS011;9974;52.146;14.668;2023-06-22T11:26:54;3.92;;;1.92;;
19651;SDS011;9974;52.146;14.668;2023-06-22T11:29:20;3.47;;;2.17;;
19651;SDS011;9974;52.146;14.668;2023-06-22T11:31:46;4.60;;;1.98;;
19651;SDS011;9974;52.146;14.668;2023-06-22T11:34:12;3.53;;;2.17;;
19651;SDS011;9974;52.146;14.668;2023-06-22T11:36:38;3.92;;;2.42;;
19651;SDS011;9974;52.146;14.668;2023-06-22T11:39:04;3.83;;;2.40;;
19651;SDS011;9974;52.146;14.668;2023-06-22T11:41:30;5.68;;;2.28;;
19651;SDS011;9974;52.146;14.668;2023-06-22T11:43:56;3.60;;;2.03;;
19651;SDS011;9974;52.146;14.668;2023-06-22T11:46:22;3.17;;;2.00;;
19651;SDS011;9974;52.146;14.668;2023-06-22T11:48:49;3.67;;;2.17;;
19651;SDS011;9974;52.146;14.668;2023-06-22T11:51:15;3.72;;;2.22;;
19651;SDS011;9974;52.146;14.668;2023-06-22T11:53:41;3.65;;;1.95;;
19651;SDS011;9974;52.146;14.668;2023-06-22T11:56:07;3.92;;;2.20;;
19651;SDS011;9974;52.146;14.668;2023-06-22T11:58:33;3.97;;;2.10;;
19651;SDS011;9974;52.146;14.668;2023-06-22T12:00:59;4.50;;;2.42;;
19651;SDS011;9974;52.146;14.668;2023-06-22T12:03:25;2.38;;;1.70;;
19651;SDS011;9974;52.146;14.668;2023-06-22T12:05:51;3.22;;;2.00;;
19651;SDS011;9974;52.146;14.668;2023-06-22T12:08:17;2.92;;;1.88;;
19651;SDS011;9974;52.146;14.668;2023-06-22T12:10:43;3.38;;;2.25;;
19651;SDS011;9974;52.146;14.668;2023-06-22T12:13:09;2.40;;;1.70;;
19651;SDS011;9974;52.146;14.668;2023-06-22T12:15:35;3.50;;;2.30;;
19651;SDS011;9974;52.146;14.668;2023-06-22T12:18:01;3.38;;;2.00;;
19651;SDS011;9974;52.146;14.668;2023-06-22T12:20:27;2.97;;;2.03;;
19651;SDS011;9974;52.146;14.668;2023-06-22T12:22:53;2.22;;;1.60;;
19651;SDS011;9974;52.146;14.668;2023-06-22T12:25:21;5.20;;;2.20;;
19651;SDS011;9974;52.146;14.668;2023-06-22T12:27:47;2.70;;;1.92;;
19651;SDS011;9974;52.146;14.668;2023-06-22T12:30:14;3.25;;;1.90;;
19651;SDS011;9974;52.146;14.668;2023-06-22T12:32:41;4.68;;;2.42;;
19651;SDS011;9974;52.146;14.668;2023-06-22T12:35:06;2.20;;;1.77;;
19651;SDS011;9974;52.146;14.668;2023-06-22T12:37:37;4.60;;;2.05;;
19651;SDS011;9974;52.146;14.668;2023-06-22T12:40:02;3.70;;;2.25;;
19651;SDS011;9974;52.146;14.668;2023-06-22T12:42:28;2.85;;;1.92;;
19651;SDS011;9974;52.146;14.668;2023-06-22T12:44:55;2.40;;;1.98;;
19651;SDS011;9974;52.146;14.668;2023-06-22T12:47:21;2.50;;;1.73;;
19651;SDS011;9974;52.146;14.668;2023-06-22T12:49:46;2.35;;;1.85;;
19651;SDS011;9974;52.146;14.668;2023-06-22T12:52:12;2.80;;;1.90;;
19651;SDS011;9974;52.146;14.668;2023-06-22T12:54:38;2.08;;;1.70;;
19651;SDS011;9974;52.146;14.668;2023-06-22T12:57:04;4.50;;;2.58;;
19651;SDS011;9974;52.146;14.668;2023-06-22T12:59:30;3.38;;;1.92;;
19651;SDS011;9974;52.146;14.668;2023-06-22T13:01:55;3.28;;;2.00;;
19651;SDS011;9974;52.146;14.668;2023-06-22T13:04:21;3.08;;;2.00;;
19651;SDS011;9974;52.146;14.668;2023-06-22T13:06:47;3.75;;;2.10;;
19651;SDS011;9974;52.146;14.668;2023-06-22T13:09:14;3.13;;;2.10;;
19651;SDS011;9974;52.146;14.668;2023-06-22T13:11:41;4.10;;;2.40;;
19651;SDS011;9974;52.146;14.668;2023-06-22T13:14:07;4.53;;;2.15;;
19651;SDS011;9974;52.146;14.668;2023-06-22T13:16:33;4.72;;;2.47;;
19651;SDS011;9974;52.146;14.668;2023-06-22T13:18:59;3.60;;;2.00;;
19651;SDS011;9974;52.146;14.668;2023-06-22T13:21:25;3.63;;;1.88;;
19651;SDS011;9974;52.146;14.668;2023-06-22T13:23:51;3.47;;;2.17;;
19651;SDS011;9974;52.146;14.668;2023-06-22T13:26:17;3.30;;;2.40;;
19651;SDS011;9974;52.146;14.668;2023-06-22T13:28:43;5.47;;;2.35;;
19651;SDS011;9974;52.146;14.668;2023-06-22T13:31:09;4.78;;;2.78;;
19651;SDS011;9974;52.146;14.668;2023-06-22T13:33:35;3.50;;;2.28;;
19651;SDS011;9974;52.146;14.668;2023-06-22T13:36:02;4.28;;;2.75;;
19651;SDS011;9974;52.146;14.668;2023-06-22T13:38:28;3.28;;;2.25;;
19651;SDS011;9974;52.146;14.668;2023-06-22T13:40:55;4.22;;;2.63;;
19651;SDS011;9974;52.146;14.668;2023-06-22T13:43:23;3.97;;;2.60;;
19651;SDS011;9974;52.146;14.668;2023-06-22T13:45:49;5.88;;;2.65;;
19651;SDS011;9974;52.146;14.668;2023-06-22T13:48:15;4.20;;;2.42;;
19651;SDS011;9974;52.146;14.668;2023-06-22T13:50:41;3.25;;;2.50;;
19651;SDS011;9974;52.146;14.668;2023-06-22T13:53:07;4.70;;;2.65;;
19651;SDS011;9974;52.146;14.668;2023-06-22T13:55:33;3.03;;;2.33;;
19651;SDS011;9974;52.146;14.668;2023-06-22T13:57:59;4.18;;;2.70;;
19651;SDS011;9974;52.146;14.668;2023-06-22T14:00:25;4.43;;;2.25;;
19651;SDS011;9974;52.146;14.668;2023-06-22T14:02:52;5.20;;;2.25;;
19651;SDS011;9974;52.146;14.668;2023-06-22T14:05:19;5.07;;;2.38;;
19651;SDS011;9974;52.146;14.668;2023-06-22T14:07:45;4.20;;;2.42;;
19651;SDS011;9974;52.146;14.668;2023-06-22T14:10:11;6.13;;;2.50;;
19651;SDS011;9974;52.146;14.668;2023-06-22T14:12:37;6.70;;;3.22;;
19651;SDS011;9974;52.146;14.668;2023-06-22T14:15:03;4.70;;;2.85;;
19651;SDS011;9974;52.146;14.668;2023-06-22T14:17:29;3.45;;;2.65;;
19651;SDS011;9974;52.146;14.668;2023-06-22T14:19:55;4.45;;;2.60;;
19651;SDS011;9974;52.146;14.668;2023-06-22T14:22:21;3.10;;;2.13;;
19651;SDS011;9974;52.146;14.668;2023-06-22T14:24:47;3.60;;;2.40;;
19651;SDS011;9974;52.146;14.668;2023-06-22T14:27:14;3.60;;;2.58;;
19651;SDS011;9974;52.146;14.668;2023-06-22T14:29:40;5.00;;;2.88;;
19651;SDS011;9974;52.146;14.668;2023-06-22T14:32:07;4.13;;;2.40;;
19651;SDS011;9974;52.146;14.668;2023-06-22T14:34:33;6.38;;;2.65;;
19651;SDS011;9974;52.146;14.668;2023-06-22T14:37:05;3.85;;;2.03;;
19651;SDS011;9974;52.146;14.668;2023-06-22T14:39:37;5.28;;;2.58;;
19651;SDS011;9974;52.146;14.668;2023-06-22T14:42:04;4.15;;;2.35;;